createdAt,value
2023-02-16T00:01:50.980Z,101310.81
2023-02-16T00:05:52.635Z,101313.44
2023-02-16T00:09:54.072Z,101315.19
2023-02-16T00:13:55.645Z,101317.84
2023-02-16T00:18:00.145Z,101318.72
2023-02-16T00:22:02.623Z,101323.03
2023-02-16T00:26:05.810Z,101318.69
2023-02-16T00:30:25.483Z,101323.00
2023-02-16T00:34:40.005Z,101327.41
2023-02-16T00:38:41.734Z,101323.91
2023-02-16T00:42:46.035Z,101316.09
2023-02-16T00:46:48.133Z,101325.69
2023-02-16T00:50:49.939Z,101303.94
2023-02-16T00:54:52.730Z,101311.78
2023-02-16T00:58:54.313Z,101305.63
2023-02-16T01:02:58.678Z,101310.03
2023-02-16T01:07:18.539Z,101310.03
2023-02-16T01:11:21.201Z,101304.81
2023-02-16T01:15:25.889Z,101305.72
2023-02-16T01:19:27.633Z,101305.69
2023-02-16T01:23:29.508Z,101297.91
2023-02-16T01:27:31.303Z,101302.22
2023-02-16T01:31:33.115Z,101292.63
2023-02-16T01:35:37.796Z,101302.25
2023-02-16T01:39:39.504Z,101290.91
2023-02-16T01:43:48.230Z,101294.41
2023-02-16T01:47:56.509Z,101286.59
2023-02-16T01:52:13.976Z,101281.31
2023-02-16T01:56:37.187Z,101286.59
2023-02-16T02:00:57.200Z,101285.72
2023-02-16T02:05:33.569Z,101280.50
2023-02-16T02:09:42.573Z,101272.69
2023-02-16T02:13:55.563Z,101276.16
2023-02-16T02:17:58.366Z,101272.69
2023-02-16T02:22:37.918Z,101272.69
2023-02-16T02:27:20.567Z,101278.78
2023-02-16T02:31:56.971Z,101284.91
2023-02-16T02:36:40.520Z,101285.75
2023-02-16T02:41:14.972Z,101279.66
2023-02-16T02:45:41.202Z,101278.78
2023-02-16T02:49:54.917Z,101280.56
2023-02-16T02:54:26.113Z,101275.34
2023-02-16T02:59:11.659Z,101268.34
2023-02-16T03:03:27.589Z,101261.44
2023-02-16T03:07:47.018Z,101264.94
2023-02-16T03:12:09.671Z,101266.66
2023-02-16T03:16:23.594Z,101268.41
2023-02-16T03:20:44.716Z,101271.91
2023-02-16T03:25:05.414Z,101277.13
2023-02-16T03:29:22.542Z,101274.53
2023-02-16T03:33:25.577Z,101276.28
2023-02-16T03:37:27.105Z,101266.69
2023-02-16T03:41:33.561Z,101271.00
2023-02-16T03:45:39.367Z,101278.88
2023-02-16T03:49:41.075Z,101283.22
2023-02-16T03:53:42.641Z,101290.22
2023-02-16T03:57:44.508Z,101286.69
2023-02-16T04:01:46.476Z,101287.56
2023-02-16T04:05:48.018Z,101287.59
2023-02-16T04:09:49.596Z,101274.53
2023-02-16T04:13:51.168Z,101279.75
2023-02-16T04:17:53.866Z,101283.22
2023-02-16T04:21:55.404Z,101282.34
2023-02-16T04:25:56.912Z,101280.63
2023-02-16T04:29:58.403Z,101274.53
2023-02-16T04:33:59.916Z,101285.88
2023-02-16T04:38:01.438Z,101284.97
2023-02-16T04:42:03.734Z,101273.66
2023-02-16T04:46:05.334Z,101265.88
2023-02-16T04:50:08.178Z,101274.56
2023-02-16T04:54:09.861Z,101264.13
2023-02-16T04:58:11.389Z,101264.16
2023-02-16T05:02:13.083Z,101271.09
2023-02-16T05:06:14.625Z,101270.22
2023-02-16T05:10:16.144Z,101278.06
2023-02-16T05:14:44.406Z,101267.63
2023-02-16T05:18:45.940Z,101271.97
2023-02-16T05:22:47.635Z,101267.63
2023-02-16T05:26:49.148Z,101270.22
2023-02-16T05:30:50.949Z,101272.81
2023-02-16T05:34:52.473Z,101279.78
2023-02-16T05:38:54.133Z,101279.78
2023-02-16T05:42:55.856Z,101279.81
2023-02-16T05:46:57.536Z,101285.03
2023-02-16T05:50:59.102Z,101288.47
2023-02-16T05:55:01.293Z,101285.03
2023-02-16T05:59:05.064Z,101288.47
2023-02-16T06:03:06.809Z,101293.72
2023-02-16T06:07:08.356Z,101291.13
2023-02-16T06:11:46.551Z,101304.13
2023-02-16T06:15:50.673Z,101296.31
2023-02-16T06:19:52.200Z,101288.50
2023-02-16T06:23:54.114Z,101285.88
2023-02-16T06:27:56.853Z,101290.22
2023-02-16T06:31:58.591Z,101288.50
2023-02-16T06:36:00.241Z,101290.19
2023-02-16T06:40:01.771Z,101300.63
2023-02-16T06:44:06.217Z,101293.66
2023-02-16T06:48:07.747Z,101310.16
2023-02-16T06:52:09.922Z,101289.25
2023-02-16T06:56:11.724Z,101296.19
2023-02-16T07:00:15.085Z,101291.75
2023-02-16T07:04:17.490Z,101282.94
2023-02-16T07:08:19.011Z,101283.84
2023-02-16T07:12:20.890Z,101277.72
2023-02-16T07:16:22.425Z,101278.53
2023-02-16T07:20:24.211Z,101267.09
2023-02-16T07:24:26.199Z,101275.50
2023-02-16T07:28:27.707Z,101266.53
2023-02-16T07:32:29.717Z,101271.69
2023-02-16T07:36:31.371Z,101275.25
2023-02-16T07:40:32.943Z,101273.53
2023-02-16T07:44:34.621Z,101295.06
2023-02-16T07:48:36.361Z,101286.09
2023-02-16T07:52:38.160Z,101289.34
2023-02-16T07:56:39.645Z,101283.88
2023-02-16T08:00:41.921Z,101278.94
2023-02-16T08:04:43.983Z,101277.53
2023-02-16T08:08:46.466Z,101276.13
2023-02-16T08:12:49.677Z,101280.94
2023-02-16T08:16:54.779Z,101283.97
2023-02-16T08:21:04.336Z,101286.16
2023-02-16T08:25:07.161Z,101281.50
2023-02-16T08:29:10.385Z,101283.63
2023-02-16T08:33:12.290Z,101281.50
2023-02-16T08:37:41.473Z,101284.34
2023-02-16T08:41:44.599Z,101289.63
2023-02-16T08:45:47.694Z,101274.34
2023-02-16T08:49:49.857Z,101274.97
2023-02-16T08:53:52.296Z,101264.59
2023-02-16T08:57:53.797Z,101274.97
2023-02-16T09:01:59.979Z,101275.19
2023-02-16T09:06:04.837Z,101268.41
2023-02-16T09:10:08.082Z,101269.78
2023-02-16T09:14:10.369Z,101255.69
2023-02-16T09:18:12.695Z,101264.72
2023-02-16T09:22:15.212Z,101259.66
2023-02-16T09:26:18.447Z,101258.31
2023-02-16T09:30:20.817Z,101252.91
2023-02-16T09:34:23.404Z,101239.25
2023-02-16T09:38:25.415Z,101249.19
2023-02-16T09:42:48.670Z,101253.66
2023-02-16T09:46:50.457Z,101241.53
2023-02-16T09:50:54.902Z,101241.72
2023-02-16T09:54:59.445Z,101246.25
2023-02-16T09:59:12.620Z,101245.78
2023-02-16T10:03:20.981Z,101241.09
2023-02-16T10:07:32.831Z,101245.94
2023-02-16T10:11:48.556Z,101248.63
2023-02-16T10:15:53.905Z,101255.59
2023-02-16T10:20:01.189Z,101250.38
2023-02-16T10:24:07.441Z,101244.47
2023-02-16T10:28:17.369Z,101242.84
2023-02-16T10:32:27.010Z,101240.84
2023-02-16T10:36:56.052Z,101232.03
2023-02-16T10:41:13.993Z,101240.53
2023-02-16T10:45:34.597Z,101229.91
2023-02-16T10:49:37.188Z,101227.72
2023-02-16T10:53:54.498Z,101219.72
2023-02-16T10:58:00.929Z,101209.47
2023-02-16T11:02:16.994Z,101205.50
2023-02-16T11:06:22.880Z,101212.19
2023-02-16T11:10:48.179Z,101205.41
2023-02-16T11:15:02.322Z,101197.31
2023-02-16T11:19:07.637Z,101200.59
2023-02-16T11:23:22.583Z,101199.66
2023-02-16T11:27:24.318Z,101191.59
2023-02-16T11:31:33.676Z,101180.50
2023-02-16T11:35:43.494Z,101177.09
2023-02-16T11:39:55.036Z,101177.84
2023-02-16T11:43:57.777Z,101178.28
2023-02-16T11:48:13.910Z,101164.81
2023-02-16T11:52:27.024Z,101155.66
2023-02-16T11:56:31.040Z,101151.56
2023-02-16T12:00:34.528Z,101136.72
2023-02-16T12:04:42.245Z,101130.38
2023-02-16T12:09:14.423Z,101148.88
2023-02-16T12:13:33.369Z,101130.66
2023-02-16T12:17:34.999Z,101127.00
2023-02-16T12:22:16.286Z,101124.03
2023-02-16T12:26:42.659Z,101108.81
2023-02-16T12:30:58.165Z,101109.75
2023-02-16T12:35:18.129Z,101109.28
2023-02-16T12:39:55.177Z,101111.22
2023-02-16T12:44:08.002Z,101107.09
2023-02-16T12:48:30.172Z,101105.91
2023-02-16T12:52:54.063Z,101093.06
2023-02-16T12:57:01.373Z,101096.53
2023-02-16T13:01:12.005Z,101086.69
2023-02-16T13:05:21.088Z,101093.41
2023-02-16T13:09:50.180Z,101089.72
2023-02-16T13:13:56.818Z,101080.47
2023-02-16T13:18:06.862Z,101080.88
2023-02-16T13:22:37.597Z,101072.06
2023-02-16T13:27:18.298Z,101077.66
2023-02-16T13:31:35.266Z,101068.41
2023-02-16T13:36:18.908Z,101064.16
2023-02-16T13:40:34.181Z,101062.00
2023-02-16T13:44:45.784Z,101066.78
2023-02-16T13:48:50.569Z,101060.22
2023-02-16T13:52:54.550Z,101062.13
2023-02-16T13:56:56.328Z,101053.72
2023-02-16T14:00:59.020Z,101061.31
2023-02-16T14:05:03.973Z,101060.66
2023-02-16T14:09:14.649Z,101063.63
2023-02-16T14:13:17.107Z,101076.38
2023-02-16T14:17:21.705Z,101066.78
2023-02-16T14:21:41.913Z,101082.53
2023-02-16T14:25:43.509Z,101078.72
2023-02-16T14:29:59.018Z,101080.13
2023-02-16T14:34:12.472Z,101065.19
2023-02-16T14:38:29.863Z,101071.84
2023-02-16T14:42:34.130Z,101067.19
2023-02-16T14:46:54.328Z,101083.25
2023-02-16T14:51:01.719Z,101080.94
2023-02-16T14:55:29.439Z,101075.03
2023-02-16T14:59:57.182Z,101076.97
2023-02-16T15:03:58.970Z,101083.56
2023-02-16T15:08:16.840Z,101076.47
2023-02-16T15:12:22.851Z,101085.81
2023-02-16T15:16:24.779Z,101080.97
2023-02-16T15:20:31.301Z,101089.16
2023-02-16T15:24:34.296Z,101087.59
2023-02-16T15:28:38.515Z,101079.88
2023-02-16T15:32:41.343Z,101079.22
2023-02-16T15:36:45.221Z,101073.03
2023-02-16T15:40:47.852Z,101068.44
2023-02-16T15:44:49.852Z,101075.91
2023-02-16T15:48:51.602Z,101075.00
2023-02-16T15:52:53.974Z,101067.78
2023-02-16T15:56:58.426Z,101069.97
2023-02-16T16:01:00.519Z,101064.66
2023-02-16T16:05:05.881Z,101066.00
2023-02-16T16:09:17.583Z,101065.19
2023-02-16T16:13:24.013Z,101068.31
2023-02-16T16:17:31.573Z,101071.63
2023-02-16T16:21:39.096Z,101079.16
2023-02-16T16:25:47.270Z,101080.41
2023-02-16T16:29:48.980Z,101082.50
2023-02-16T16:34:04.627Z,101083.66
2023-02-16T16:38:21.319Z,101080.03
2023-02-16T16:42:23.803Z,101076.28
2023-02-16T16:46:29.778Z,101076.72
2023-02-16T16:50:39.647Z,101079.22
2023-02-16T16:54:41.526Z,101075.75
2023-02-16T16:58:43.050Z,101079.63
2023-02-16T17:02:45.045Z,101071.31
2023-02-16T17:06:46.578Z,101079.78
2023-02-16T17:10:48.343Z,101071.84
2023-02-16T17:14:49.866Z,101073.09
2023-02-16T17:18:51.555Z,101075.94
2023-02-16T17:22:53.135Z,101081.44
2023-02-16T17:26:55.109Z,101079.06
2023-02-16T17:30:57.377Z,101071.75
2023-02-16T17:34:59.004Z,101068.16
2023-02-16T17:39:00.782Z,101068.38
2023-02-16T17:43:02.499Z,101068.50
2023-02-16T17:47:04.121Z,101066.59
2023-02-16T17:51:10.283Z,101058.63
2023-02-16T17:55:12.232Z,101048.72
2023-02-16T17:59:15.257Z,101047.97
2023-02-16T18:03:18.006Z,101052.19
2023-02-16T18:07:19.765Z,101059.97
2023-02-16T18:11:21.244Z,101060.00
2023-02-16T18:15:22.977Z,101061.69
2023-02-16T18:19:24.634Z,101064.09
2023-02-16T18:23:26.183Z,101060.94
2023-02-16T18:27:29.421Z,101059.94
2023-02-16T18:31:31.736Z,101074.63
2023-02-16T18:35:33.362Z,101060.34
2023-02-16T18:39:34.898Z,101067.66
2023-02-16T18:43:37.214Z,101066.53
2023-02-16T18:47:38.984Z,101064.66
2023-02-16T18:51:40.538Z,101071.31
2023-02-16T18:55:42.192Z,101079.19
2023-02-16T18:59:43.858Z,101067.38
2023-02-16T19:03:45.414Z,101073.59
2023-02-16T19:07:47.184Z,101083.19
2023-02-16T19:11:49.103Z,101087.09
2023-02-16T19:15:50.644Z,101091.56
2023-02-16T19:19:52.414Z,101093.75
2023-02-16T19:23:53.980Z,101089.41
2023-02-16T19:27:55.584Z,101085.84
2023-02-16T19:31:57.395Z,101075.16
2023-02-16T19:36:04.535Z,101076.72
2023-02-16T19:40:08.514Z,101059.69
2023-02-16T19:44:14.496Z,101063.31
2023-02-16T19:48:16.720Z,101062.28
2023-02-16T19:52:18.487Z,101059.38
2023-02-16T19:56:23.882Z,101060.66
2023-02-16T20:00:25.671Z,101062.09
2023-02-16T20:04:27.506Z,101058.56
2023-02-16T20:08:29.154Z,101062.63
2023-02-16T20:12:30.856Z,101061.66
2023-02-16T20:16:32.683Z,101062.81
2023-02-16T20:20:35.462Z,101061.28
2023-02-16T20:24:37.071Z,101055.66
2023-02-16T20:28:39.637Z,101057.94
2023-02-16T20:32:41.230Z,101058.72
2023-02-16T20:36:42.964Z,101057.75
2023-02-16T20:40:45.010Z,101063.13
2023-02-16T20:44:46.678Z,101059.28
2023-02-16T20:48:49.977Z,101061.34
2023-02-16T20:52:51.919Z,101054.97
2023-02-16T20:56:53.661Z,101041.16
2023-02-16T21:00:55.440Z,101044.69
2023-02-16T21:04:57.211Z,101048.28
2023-02-16T21:08:58.999Z,101047.84
2023-02-16T21:13:01.849Z,101029.31
2023-02-16T21:17:04.670Z,101030.59
2023-02-16T21:21:07.700Z,101025.41
2023-02-16T21:25:09.571Z,101033.72
2023-02-16T21:29:12.930Z,101029.97
2023-02-16T21:33:15.416Z,101018.53
2023-02-16T21:37:19.032Z,101017.31
2023-02-16T21:41:28.632Z,101015.97
2023-02-16T21:45:30.271Z,100999.63
2023-02-16T21:49:31.953Z,100996.44
2023-02-16T21:53:38.170Z,100989.72
2023-02-16T21:57:39.900Z,100992.97
2023-02-16T22:01:44.609Z,100993.56
2023-02-16T22:05:46.748Z,100987.59
2023-02-16T22:09:48.307Z,100980.59
2023-02-16T22:13:55.953Z,100976.56
2023-02-16T22:17:57.464Z,100983.97
2023-02-16T22:21:59.647Z,100982.53
2023-02-16T22:26:01.464Z,100987.25
2023-02-16T22:30:12.607Z,100978.16
2023-02-16T22:34:17.537Z,100963.22
2023-02-16T22:38:19.309Z,100960.00
2023-02-16T22:42:22.460Z,100965.38
2023-02-16T22:46:25.267Z,100960.00
2023-02-16T22:50:27.830Z,100962.31
2023-02-16T22:54:29.445Z,100957.50
2023-02-16T22:58:33.235Z,100954.25
2023-02-16T23:02:37.946Z,100933.03
2023-02-16T23:06:39.729Z,100929.31
2023-02-16T23:10:59.456Z,100918.38
2023-02-16T23:15:01.085Z,100910.31
2023-02-16T23:19:03.139Z,100915.00
2023-02-16T23:23:04.700Z,100917.28
2023-02-16T23:27:06.271Z,100909.50
2023-02-16T23:31:08.748Z,100905.91
2023-02-16T23:35:10.376Z,100910.47
2023-02-16T23:39:16.049Z,100900.31
2023-02-16T23:43:17.647Z,100902.72
2023-02-16T23:47:19.778Z,100888.38
2023-02-16T23:51:21.499Z,100892.97
2023-02-16T23:55:23.247Z,100879.22
2023-02-16T23:59:25.838Z,100874.19
